Etusivu
METAR-TAF:

METAR-TAF

Lentoasemat :

Vaasan lentoasema

Vaasa, Suomi

Leveyspiiri: 63-03N, Pituuspiiri: 021-46E, korkeus merenpinnasta: 4 m

Tämänhetkinen sää

Tämä raportti tehtiin 22 minuuttia sitten, kello 13.20 UTC
Tuuli 9 kn lännestä/lounaasta, vaihdellen lounaan ja lännen/luoteen välillä
Lämpötila 10°C
Kosteus 62%
Ilmanpaine 1014 hPa
Näkyvyys 10 km tai enemmän

METAR: EFVA 251320Z AUTO 25009KT 220V290 9999 FEW025/// BKN073/// BKN088/// 10/03 Q1014

Aika: 16:42 (13:42 UTC)

Sääennuste

Tämä raportti tehtiin 2 tuntia ja 12 minuuttia sitten, kello 11.30 UTC
Ennuste voimassa 25. päivästä klo 12 UTC - 26. päivään klo 12 UTC
Tuuli 9 kn lännestä/lounaasta
Näkyvyys 10 km tai enemmän
Hajanaisia pilviä 3000 ft:n korkeudessa
Tulossa
26. päivästä klo 03 UTC - 26. päivään klo 05 UTC
Tuuli 12 kn etelästä/lounaasta
Näkyvyys: 7000 m
Hajonneita pilviä 1300 ft:n korkeudessa
sadetta

TAF: EFVA 251130Z 2512/2612 25009KT 9999 SCT030 BECMG 2603/2605 21012KT 7000 RA BKN013

Säähavainnot ja -ennusteet yli 4000 lentoasemalta (METAR- ja TAF-raportit).

Käytössä olevat sääasemat on merkitty karttaan keltaisilla ja punaisilla pisteillä.

Aseta hiiri pisteen päälle nähdäksesi sääaseman nimen.

Klikkaa sitten nähdäksesi säähavainnot ja -ennusteet.

Kartan vaihtaminen: klikkaa mustalla rastilla varustettuja vihreitä pisteitä, niin voit zoomata sisään; viivalla varustettua vihreää pistettä, niin voit zoomata ulos tai vihreitä nuolia, niin pääset viereisille kartoille.


METAR-TAF: